Time;durP1;ratioP1;P1;durP2;ratioP2;P2;SDS_P1;SDS_P2;PMS_P1;PMS_P2;Temp;Humidity;BMP_temperature;BMP_pressure;BME280_temperature;BME280_humidity;BME280_pressure;Samples;Min_cycle;Max_cycle;Signal;HPM_P1;HPM_P2
2023/08/03 00:01:28;;;;;;;6.65;1.70;;;;;;;;;;5058050;28;20036;-66
2023/08/03 00:03:55;;;;;;;4.82;1.33;;;;;;;;;;5061506;28;20492;-66
2023/08/03 00:06:21;;;;;;;7.78;1.60;;;;;;;;;;5062440;28;20035;-66
2023/08/03 00:08:49;;;;;;;8.90;2.05;;;;;;;;;;5061843;28;20129;-66
2023/08/03 00:11:15;;;;;;;7.30;1.83;;;;;;;;;;5059810;28;20978;-67
2023/08/03 00:13:42;;;;;;;6.38;1.58;;;;;;;;;;5042437;28;20044;-67
2023/08/03 00:16:08;;;;;;;7.47;1.60;;;;;;;;;;5060443;28;20032;-66
2023/08/03 00:18:34;;;;;;;9.25;1.83;;;;;;;;;;5058374;28;20043;-66
2023/08/03 00:21:00;;;;;;;8.07;1.65;;;;;;;;;;5059240;28;20043;-66
2023/08/03 00:23:26;;;;;;;7.38;1.50;;;;;;;;;;5056458;28;20036;-68
2023/08/03 00:25:52;;;;;;;7.85;1.48;;;;;;;;;;5057549;28;20035;-67
2023/08/03 00:28:21;;;;;;;5.75;1.50;;;;;;;;;;5058104;28;20111;-67
2023/08/03 00:30:47;;;;;;;5.97;1.70;;;;;;;;;;5058671;28;20048;-67
2023/08/03 00:33:13;;;;;;;6.75;1.52;;;;;;;;;;5056440;28;20032;-67
2023/08/03 00:35:39;;;;;;;6.72;2.03;;;;;;;;;;5058189;28;20395;-67
2023/08/03 00:38:05;;;;;;;4.75;1.70;;;;;;;;;;5058478;28;20032;-67
2023/08/03 00:40:31;;;;;;;7.65;1.60;;;;;;;;;;5061746;28;20013;-66
2023/08/03 00:42:57;;;;;;;7.60;1.58;;;;;;;;;;5059502;28;20483;-66
2023/08/03 00:45:23;;;;;;;8.23;1.90;;;;;;;;;;5058365;28;20032;-66
2023/08/03 00:47:49;;;;;;;4.97;1.70;;;;;;;;;;5060293;28;20032;-66
2023/08/03 00:50:16;;;;;;;5.97;1.75;;;;;;;;;;5059202;28;20064;-66
2023/08/03 00:52:42;;;;;;;8.07;1.70;;;;;;;;;;5060344;28;20093;-66
2023/08/03 00:55:08;;;;;;;5.85;2.05;;;;;;;;;;5059300;28;20060;-66
2023/08/03 00:57:34;;;;;;;6.45;1.42;;;;;;;;;;5059705;28;20755;-66
2023/08/03 01:00:00;;;;;;;4.97;1.38;;;;;;;;;;5058144;28;20457;-66
2023/08/03 01:02:26;;;;;;;5.47;1.27;;;;;;;;;;5058566;28;20043;-66
2023/08/03 01:04:52;;;;;;;7.07;1.92;;;;;;;;;;5057156;28;20142;-66
2023/08/03 01:07:21;;;;;;;3.08;1.05;;;;;;;;;;5057217;28;20040;-66
2023/08/03 01:09:47;;;;;;;4.90;1.30;;;;;;;;;;5056582;28;20814;-66
2023/08/03 01:12:13;;;;;;;5.13;1.60;;;;;;;;;;5057086;28;20044;-66
2023/08/03 01:14:39;;;;;;;4.57;1.60;;;;;;;;;;5057168;28;20032;-66
2023/08/03 01:17:06;;;;;;;6.30;1.95;;;;;;;;;;5059236;28;20031;-66
2023/08/03 01:19:32;;;;;;;4.43;1.65;;;;;;;;;;5058569;28;20035;-66
2023/08/03 01:21:59;;;;;;;4.90;1.27;;;;;;;;;;5058211;28;20750;-66
2023/08/03 01:24:25;;;;;;;6.70;2.00;;;;;;;;;;5057573;28;20119;-66
2023/08/03 01:26:51;;;;;;;8.18;2.03;;;;;;;;;;5058053;28;20090;-66
2023/08/03 01:29:17;;;;;;;8.35;1.50;;;;;;;;;;5056984;28;20029;-66
2023/08/03 01:31:43;;;;;;;5.93;1.90;;;;;;;;;;5055531;28;20036;-66
2023/08/03 01:34:13;;;;;;;5.75;1.70;;;;;;;;;;5056160;28;20028;-65
2023/08/03 01:36:39;;;;;;;5.80;1.70;;;;;;;;;;5055425;28;21337;-65
2023/08/03 01:39:09;;;;;;;7.32;1.50;;;;;;;;;;5056464;28;20033;-65
2023/08/03 01:41:36;;;;;;;7.40;1.80;;;;;;;;;;5055424;28;20031;-65
2023/08/03 01:44:40;;;;;;;8.35;1.83;;;;;;;;;;5055853;28;20040;-65
2023/08/03 01:47:07;;;;;;;4.55;1.70;;;;;;;;;;4994905;28;20022;-66
2023/08/03 01:49:34;;;;;;;4.68;1.40;;;;;;;;;;4996900;28;20034;-66
2023/08/03 01:52:00;;;;;;;5.95;1.50;;;;;;;;;;5024959;28;20051;-66
2023/08/03 01:54:26;;;;;;;7.82;2.00;;;;;;;;;;5057782;28;20078;-66
2023/08/03 01:56:53;;;;;;;5.47;1.70;;;;;;;;;;5057997;28;20044;-66
2023/08/03 01:59:19;;;;;;;4.68;1.77;;;;;;;;;;5057365;28;20040;-66
2023/08/03 02:01:45;;;;;;;6.25;1.60;;;;;;;;;;5057346;28;20590;-66
2023/08/03 02:04:11;;;;;;;4.07;1.58;;;;;;;;;;5056994;28;20033;-66
2023/08/03 02:06:38;;;;;;;6.60;2.05;;;;;;;;;;5057558;28;20040;-66
2023/08/03 02:09:04;;;;;;;3.75;1.85;;;;;;;;;;5057343;28;20123;-66
2023/08/03 02:11:30;;;;;;;9.27;1.88;;;;;;;;;;5057230;28;20033;-66
2023/08/03 02:13:56;;;;;;;5.63;1.90;;;;;;;;;;5057675;28;20454;-66
2023/08/03 02:16:22;;;;;;;3.33;1.50;;;;;;;;;;5058812;28;20035;-66
2023/08/03 02:18:48;;;;;;;4.07;1.30;;;;;;;;;;5059700;28;20051;-66
2023/08/03 02:21:14;;;;;;;2.97;1.25;;;;;;;;;;5060326;28;20029;-66
2023/08/03 02:23:41;;;;;;;5.25;1.67;;;;;;;;;;5045111;28;20032;-66
2023/08/03 02:26:08;;;;;;;4.57;1.38;;;;;;;;;;5063571;28;20067;-66
2023/08/03 02:28:37;;;;;;;8.15;1.75;;;;;;;;;;5060720;28;20037;-66
2023/08/03 02:31:03;;;;;;;3.78;1.30;;;;;;;;;;5062850;28;20071;-66
2023/08/03 02:33:29;;;;;;;4.75;1.27;;;;;;;;;;5062921;28;21497;-66
2023/08/03 02:35:55;;;;;;;2.20;1.10;;;;;;;;;;5062743;28;20051;-66
2023/08/03 02:38:21;;;;;;;4.90;1.27;;;;;;;;;;5043887;28;20052;-66
2023/08/03 02:40:47;;;;;;;4.32;1.20;;;;;;;;;;5062235;28;20028;-66
2023/08/03 02:43:13;;;;;;;4.18;1.33;;;;;;;;;;5062415;28;20063;-66
2023/08/03 02:45:39;;;;;;;4.63;1.45;;;;;;;;;;5060870;28;20036;-66
2023/08/03 02:48:05;;;;;;;3.55;1.30;;;;;;;;;;5061763;28;20060;-66
2023/08/03 02:50:31;;;;;;;3.75;1.23;;;;;;;;;;5064784;28;20034;-66
2023/08/03 02:52:57;;;;;;;3.25;1.30;;;;;;;;;;5063095;28;20511;-66
2023/08/03 02:55:24;;;;;;;5.85;1.65;;;;;;;;;;5061395;28;20690;-66
2023/08/03 02:57:50;;;;;;;5.07;1.65;;;;;;;;;;5062202;28;21015;-66
2023/08/03 03:00:16;;;;;;;3.78;1.50;;;;;;;;;;5058900;28;20052;-66
2023/08/03 03:02:46;;;;;;;3.67;1.40;;;;;;;;;;5043029;28;20536;-66
2023/08/03 03:05:12;;;;;;;3.38;1.50;;;;;;;;;;5062896;28;20300;-66
2023/08/03 03:07:38;;;;;;;4.05;1.35;;;;;;;;;;5063347;28;20045;-66
2023/08/03 03:10:04;;;;;;;2.67;1.40;;;;;;;;;;5060839;28;20040;-66
2023/08/03 03:12:30;;;;;;;4.88;1.65;;;;;;;;;;5061885;28;20037;-66
2023/08/03 03:14:56;;;;;;;4.68;1.98;;;;;;;;;;5058798;28;20033;-66
2023/08/03 03:17:25;;;;;;;5.85;2.00;;;;;;;;;;5059841;28;20036;-65
2023/08/03 03:19:54;;;;;;;14.27;2.42;;;;;;;;;;5059220;28;20060;-65
2023/08/03 03:22:20;;;;;;;3.40;1.88;;;;;;;;;;5059044;28;20412;-66
2023/08/03 03:24:46;;;;;;;5.07;2.00;;;;;;;;;;5060298;28;20990;-66
2023/08/03 03:27:12;;;;;;;5.15;1.85;;;;;;;;;;5057966;28;20720;-66
2023/08/03 03:29:38;;;;;;;4.70;1.92;;;;;;;;;;5060692;28;20822;-66
2023/08/03 03:32:04;;;;;;;6.18;1.95;;;;;;;;;;5061129;28;20032;-66
2023/08/03 03:34:30;;;;;;;3.25;1.73;;;;;;;;;;5059200;28;20039;-67
2023/08/03 03:36:56;;;;;;;7.28;2.17;;;;;;;;;;5060216;28;20036;-65
2023/08/03 03:39:22;;;;;;;5.45;2.42;;;;;;;;;;5042113;28;20027;-64
2023/08/03 03:41:48;;;;;;;4.03;2.35;;;;;;;;;;5039529;28;21792;-66
2023/08/03 03:44:14;;;;;;;7.32;2.47;;;;;;;;;;5058071;28;21390;-65
2023/08/03 03:46:40;;;;;;;6.75;2.50;;;;;;;;;;5058544;28;20044;-65
2023/08/03 03:49:06;;;;;;;10.30;3.00;;;;;;;;;;5059665;28;20020;-65
2023/08/03 03:51:32;;;;;;;8.48;2.60;;;;;;;;;;5058405;28;20021;-65
2023/08/03 03:53:59;;;;;;;5.88;2.90;;;;;;;;;;5057886;28;20039;-65
2023/08/03 03:56:25;;;;;;;7.05;3.50;;;;;;;;;;5059723;28;21845;-65
2023/08/03 03:58:51;;;;;;;9.23;3.35;;;;;;;;;;5058937;28;20518;-65
2023/08/03 04:01:17;;;;;;;5.90;3.03;;;;;;;;;;5059163;28;20955;-65
2023/08/03 04:03:43;;;;;;;6.20;2.90;;;;;;;;;;5058291;28;20033;-66
2023/08/03 04:06:09;;;;;;;6.88;3.28;;;;;;;;;;5056311;28;20047;-66
2023/08/03 04:08:35;;;;;;;6.13;3.08;;;;;;;;;;5058463;28;20036;-65
2023/08/03 04:11:01;;;;;;;11.43;3.33;;;;;;;;;;5055575;28;20055;-66
2023/08/03 04:13:27;;;;;;;5.70;3.47;;;;;;;;;;5057370;28;20039;-66
2023/08/03 04:15:53;;;;;;;7.45;3.83;;;;;;;;;;5058952;28;20021;-66
2023/08/03 04:18:19;;;;;;;10.52;3.65;;;;;;;;;;5059416;28;20025;-66
2023/08/03 04:20:45;;;;;;;6.90;3.35;;;;;;;;;;5059953;28;20037;-66
2023/08/03 04:23:11;;;;;;;8.05;4.05;;;;;;;;;;5041093;28;20037;-66
2023/08/03 04:25:37;;;;;;;7.45;4.28;;;;;;;;;;5058104;28;20043;-65
2023/08/03 04:28:03;;;;;;;8.10;4.32;;;;;;;;;;5056946;28;20034;-66
2023/08/03 04:30:30;;;;;;;13.30;5.18;;;;;;;;;;5059143;28;20039;-66
2023/08/03 04:32:56;;;;;;;7.95;4.47;;;;;;;;;;5057319;28;21093;-66
2023/08/03 04:35:22;;;;;;;10.73;4.93;;;;;;;;;;5056358;28;20036;-66
2023/08/03 04:37:48;;;;;;;10.30;5.13;;;;;;;;;;5054372;28;20163;-66
2023/08/03 04:40:14;;;;;;;7.95;4.43;;;;;;;;;;5055743;28;20077;-66
2023/08/03 04:42:40;;;;;;;7.60;4.28;;;;;;;;;;5042922;28;20039;-66
2023/08/03 04:45:06;;;;;;;7.35;4.20;;;;;;;;;;5057030;28;21000;-66
2023/08/03 04:47:32;;;;;;;9.77;4.50;;;;;;;;;;5060100;28;20035;-66
2023/08/03 04:49:58;;;;;;;8.18;3.92;;;;;;;;;;5056824;28;20108;-66
2023/08/03 04:52:24;;;;;;;6.38;3.28;;;;;;;;;;5055095;28;20028;-66
2023/08/03 04:54:51;;;;;;;8.32;4.20;;;;;;;;;;5040319;28;20020;-66
2023/08/03 04:57:17;;;;;;;7.22;3.90;;;;;;;;;;5043036;28;20040;-66
2023/08/03 04:59:43;;;;;;;12.82;3.95;;;;;;;;;;5057963;28;20036;-66
2023/08/03 05:02:09;;;;;;;9.60;3.83;;;;;;;;;;5058986;28;20032;-66
2023/08/03 05:04:35;;;;;;;9.93;4.10;;;;;;;;;;5058290;28;20039;-66
2023/08/03 05:07:01;;;;;;;9.75;4.10;;;;;;;;;;5058593;28;20136;-66
2023/08/03 05:09:28;;;;;;;7.53;3.75;;;;;;;;;;5057713;28;20047;-66
2023/08/03 05:11:54;;;;;;;13.38;4.43;;;;;;;;;;5056962;28;20029;-66
2023/08/03 05:14:20;;;;;;;9.43;5.00;;;;;;;;;;5058607;28;20076;-66
2023/08/03 05:16:46;;;;;;;7.75;4.22;;;;;;;;;;5057364;28;20069;-66
2023/08/03 05:19:12;;;;;;;10.18;4.93;;;;;;;;;;5060676;28;20025;-66
2023/08/03 05:21:38;;;;;;;10.05;4.50;;;;;;;;;;5058220;28;20368;-66
2023/08/03 05:24:04;;;;;;;9.85;4.82;;;;;;;;;;5057681;28;20643;-66
2023/08/03 05:26:34;;;;;;;7.60;4.72;;;;;;;;;;5057446;28;20040;-66
2023/08/03 05:29:00;;;;;;;8.52;4.55;;;;;;;;;;5058184;28;20631;-66
2023/08/03 05:31:26;;;;;;;7.47;4.95;;;;;;;;;;5057038;28;20028;-66
2023/08/03 05:33:52;;;;;;;10.18;5.07;;;;;;;;;;5056704;28;20036;-66
2023/08/03 05:36:18;;;;;;;8.85;4.85;;;;;;;;;;5056490;28;20064;-67
2023/08/03 05:38:44;;;;;;;8.00;4.43;;;;;;;;;;5058327;28;20480;-66
2023/08/03 05:41:18;;;;;;;6.93;4.07;;;;;;;;;;5057898;28;20675;-66
2023/08/03 05:43:45;;;;;;;9.45;4.60;;;;;;;;;;5057902;28;20067;-66
2023/08/03 05:46:14;;;;;;;7.07;3.92;;;;;;;;;;5058344;28;21001;-66
2023/08/03 05:48:41;;;;;;;7.95;4.30;;;;;;;;;;5058380;28;20039;-66
2023/08/03 05:51:08;;;;;;;7.80;4.65;;;;;;;;;;5057118;28;20032;-66
2023/08/03 05:53:35;;;;;;;7.60;4.30;;;;;;;;;;5057053;28;20632;-66
2023/08/03 05:56:01;;;;;;;10.23;5.03;;;;;;;;;;5056990;28;20113;-66
2023/08/03 05:58:27;;;;;;;11.55;5.53;;;;;;;;;;5059868;28;20093;-66
2023/08/03 06:00:53;;;;;;;6.30;4.40;;;;;;;;;;5061864;28;20036;-66
2023/08/03 06:03:19;;;;;;;8.63;5.22;;;;;;;;;;5062310;28;20633;-66
2023/08/03 06:05:46;;;;;;;5.68;4.35;;;;;;;;;;5062066;28;20699;-66
2023/08/03 06:08:23;;;;;;;7.95;4.05;;;;;;;;;;5061221;28;20036;-66
2023/08/03 06:10:51;;;;;;;7.90;4.10;;;;;;;;;;5060708;28;20042;-66
2023/08/03 06:13:18;;;;;;;10.13;4.88;;;;;;;;;;5059268;28;20580;-66
2023/08/03 06:15:45;;;;;;;6.55;4.38;;;;;;;;;;5060599;28;20033;-66
2023/08/03 06:18:12;;;;;;;7.97;4.18;;;;;;;;;;5059377;28;20028;-66
2023/08/03 06:20:45;;;;;;;5.68;4.22;;;;;;;;;;5058597;28;20027;-66
2023/08/03 06:23:12;;;;;;;5.93;4.33;;;;;;;;;;5059639;28;20025;-66
2023/08/03 06:25:39;;;;;;;7.25;4.45;;;;;;;;;;5060107;28;20047;-66
2023/08/03 06:28:05;;;;;;;10.38;4.53;;;;;;;;;;5058790;28;20093;-66
2023/08/03 06:30:32;;;;;;;8.60;4.25;;;;;;;;;;5061158;28;20028;-66
2023/08/03 06:32:58;;;;;;;5.90;3.53;;;;;;;;;;5060198;28;20115;-66
2023/08/03 06:35:26;;;;;;;7.45;3.83;;;;;;;;;;5058654;28;20918;-66
2023/08/03 06:37:53;;;;;;;5.70;3.45;;;;;;;;;;5061128;28;20125;-66
2023/08/03 06:40:20;;;;;;;5.20;3.60;;;;;;;;;;5057750;28;20028;-66
2023/08/03 06:42:46;;;;;;;7.90;3.38;;;;;;;;;;5059728;28;20043;-66
2023/08/03 06:45:13;;;;;;;7.53;3.05;;;;;;;;;;5059773;28;21056;-66
2023/08/03 06:47:39;;;;;;;5.65;3.10;;;;;;;;;;5060590;28;20117;-66
2023/08/03 06:50:06;;;;;;;5.78;3.03;;;;;;;;;;5059129;28;20033;-67
2023/08/03 06:52:32;;;;;;;6.25;3.20;;;;;;;;;;5060420;28;20032;-66
2023/08/03 06:54:58;;;;;;;4.60;2.55;;;;;;;;;;5060703;28;20044;-66
2023/08/03 06:57:24;;;;;;;4.65;2.42;;;;;;;;;;5057730;28;20020;-66
2023/08/03 06:59:50;;;;;;;4.55;2.45;;;;;;;;;;5059934;28;20045;-66
2023/08/03 07:02:16;;;;;;;4.93;2.63;;;;;;;;;;5058191;28;20036;-66
2023/08/03 07:04:42;;;;;;;5.97;2.63;;;;;;;;;;5060541;28;20587;-66
2023/08/03 07:07:08;;;;;;;4.10;2.20;;;;;;;;;;5058723;28;20098;-67
2023/08/03 07:09:34;;;;;;;4.32;2.00;;;;;;;;;;5057483;28;20028;-67
2023/08/03 07:12:00;;;;;;;4.40;2.30;;;;;;;;;;5058948;28;20033;-67
2023/08/03 07:14:26;;;;;;;3.63;1.83;;;;;;;;;;5057384;28;20115;-67
2023/08/03 07:16:52;;;;;;;4.60;2.15;;;;;;;;;;5058529;28;20112;-67
2023/08/03 07:19:18;;;;;;;3.83;1.80;;;;;;;;;;5057490;28;20036;-67
2023/08/03 07:21:44;;;;;;;8.32;2.33;;;;;;;;;;5058447;28;20032;-67
2023/08/03 07:24:10;;;;;;;5.68;2.10;;;;;;;;;;5058848;28;20028;-67
2023/08/03 07:26:37;;;;;;;3.83;1.42;;;;;;;;;;5059094;28;20044;-67
2023/08/03 07:29:03;;;;;;;4.13;1.85;;;;;;;;;;5059290;28;20028;-67
2023/08/03 07:31:29;;;;;;;6.13;2.08;;;;;;;;;;5059549;28;20074;-67
2023/08/03 07:33:55;;;;;;;4.97;1.75;;;;;;;;;;5059583;28;20027;-67
2023/08/03 07:36:21;;;;;;;6.43;1.90;;;;;;;;;;5057116;28;20218;-67
2023/08/03 07:38:47;;;;;;;5.93;2.05;;;;;;;;;;5057468;28;21796;-67
2023/08/03 07:41:16;;;;;;;6.20;2.10;;;;;;;;;;5058578;28;20024;-67
2023/08/03 07:43:46;;;;;;;7.20;2.13;;;;;;;;;;5057950;28;20586;-68
2023/08/03 07:46:12;;;;;;;4.35;2.03;;;;;;;;;;5041024;28;20866;-67
2023/08/03 07:48:39;;;;;;;6.70;1.85;;;;;;;;;;5058050;28;20689;-67
2023/08/03 07:51:12;;;;;;;5.00;1.70;;;;;;;;;;5057531;28;20030;-67
2023/08/03 07:53:38;;;;;;;7.72;1.30;;;;;;;;;;5057062;28;20384;-67
2023/08/03 07:56:04;;;;;;;7.70;1.58;;;;;;;;;;5037012;28;20041;-67
2023/08/03 07:58:30;;;;;;;4.63;1.50;;;;;;;;;;5057758;28;20727;-67
2023/08/03 08:01:06;;;;;;;5.43;1.70;;;;;;;;;;5045013;28;21400;-67
2023/08/03 08:03:32;;;;;;;6.60;1.55;;;;;;;;;;5039634;28;20047;-67
2023/08/03 08:06:08;;;;;;;8.32;1.90;;;;;;;;;;5023137;28;20044;-67
2023/08/03 08:08:34;;;;;;;4.03;1.00;;;;;;;;;;5029996;28;20032;-67
2023/08/03 08:11:00;;;;;;;4.15;0.85;;;;;;;;;;5043698;28;20040;-67
2023/08/03 08:13:29;;;;;;;7.97;1.17;;;;;;;;;;5041285;28;20036;-67
2023/08/03 08:16:14;;;;;;;4.28;1.23;;;;;;;;;;5043942;28;20079;-67
2023/08/03 08:18:41;;;;;;;6.25;1.38;;;;;;;;;;5042511;28;20098;-67
2023/08/03 08:21:08;;;;;;;4.88;1.13;;;;;;;;;;5041786;28;20019;-68
2023/08/03 08:23:34;;;;;;;5.97;1.45;;;;;;;;;;5043594;28;20021;-67
2023/08/03 08:26:00;;;;;;;3.25;0.90;;;;;;;;;;5043055;28;20067;-68
2023/08/03 08:28:27;;;;;;;6.60;1.00;;;;;;;;;;5042521;28;20021;-67
2023/08/03 08:30:53;;;;;;;4.75;1.15;;;;;;;;;;5025034;28;20040;-67
2023/08/03 08:33:19;;;;;;;5.20;1.48;;;;;;;;;;5041825;28;20037;-67
2023/08/03 08:35:46;;;;;;;5.60;1.20;;;;;;;;;;5043624;28;20028;-67
2023/08/03 08:38:13;;;;;;;5.32;1.23;;;;;;;;;;5043977;28;20028;-69
2023/08/03 08:40:40;;;;;;;11.40;1.45;;;;;;;;;;5043790;28;20030;-68
2023/08/03 08:43:06;;;;;;;5.22;1.35;;;;;;;;;;5043422;28;20123;-68
2023/08/03 08:45:36;;;;;;;5.80;1.15;;;;;;;;;;5042837;28;20075;-68
2023/08/03 08:48:04;;;;;;;6.93;1.05;;;;;;;;;;5041602;28;20058;-68
2023/08/03 08:50:31;;;;;;;4.78;1.20;;;;;;;;;;5043585;28;20066;-68
2023/08/03 08:52:57;;;;;;;7.55;1.70;;;;;;;;;;5040200;28;20036;-68
2023/08/03 08:55:25;;;;;;;4.30;1.45;;;;;;;;;;5042694;28;20036;-68
2023/08/03 08:57:52;;;;;;;5.40;1.40;;;;;;;;;;5041740;28;20094;-68
2023/08/03 09:00:18;;;;;;;6.28;1.40;;;;;;;;;;5042851;28;20071;-68
2023/08/03 09:02:44;;;;;;;3.90;1.23;;;;;;;;;;5042682;28;20024;-68
2023/08/03 09:05:21;;;;;;;7.28;1.25;;;;;;;;;;5043021;28;20071;-68
2023/08/03 09:08:08;;;;;;;8.13;1.70;;;;;;;;;;5040606;28;20033;-68
2023/08/03 09:10:50;;;;;;;9.30;1.85;;;;;;;;;;5041382;28;20036;-68
2023/08/03 09:13:37;;;;;;;7.47;2.40;;;;;;;;;;5041699;28;20044;-68
2023/08/03 09:16:04;;;;;;;6.20;1.48;;;;;;;;;;5042408;28;20023;-68
2023/08/03 09:18:31;;;;;;;6.95;1.88;;;;;;;;;;5043400;28;20029;-68
2023/08/03 09:21:10;;;;;;;9.48;2.00;;;;;;;;;;5042860;28;20069;-68
2023/08/03 09:23:36;;;;;;;9.43;2.20;;;;;;;;;;5043542;28;22452;-69
2023/08/03 09:26:02;;;;;;;12.57;2.78;;;;;;;;;;5042728;28;20134;-68
2023/08/03 09:28:39;;;;;;;7.15;2.08;;;;;;;;;;5042127;28;20162;-68
2023/08/03 09:31:05;;;;;;;8.88;2.25;;;;;;;;;;5035212;28;20037;-68
2023/08/03 09:33:32;;;;;;;8.98;2.58;;;;;;;;;;5041610;28;20391;-69
2023/08/03 09:36:05;;;;;;;9.15;1.80;;;;;;;;;;5042288;28;20110;-69
2023/08/03 09:38:31;;;;;;;;;;;;;;;;;;5043526;28;20103;-69
2023/08/03 09:40:58;;;;;;;7.93;1.85;;;;;;;;;;5042578;28;19916;-69
2023/08/03 09:43:24;;;;;;;8.57;2.83;;;;;;;;;;5041234;28;20032;-69
2023/08/03 09:45:52;;;;;;;8.63;2.00;;;;;;;;;;5043334;28;20164;-69
2023/08/03 09:48:19;;;;;;;9.40;2.88;;;;;;;;;;5040036;28;20032;-69
2023/08/03 09:50:48;;;;;;;7.35;2.05;;;;;;;;;;5037957;28;20565;-69
2023/08/03 09:53:16;;;;;;;9.98;2.03;;;;;;;;;;5039322;28;20035;-69
2023/08/03 09:55:47;;;;;;;10.75;2.22;;;;;;;;;;5040963;28;20570;-69
2023/08/03 09:58:18;;;;;;;8.25;1.95;;;;;;;;;;5040507;28;20020;-69
2023/08/03 10:00:45;;;;;;;6.25;1.65;;;;;;;;;;5039454;28;20071;-69
2023/08/03 10:03:14;;;;;;;10.18;1.73;;;;;;;;;;5041211;28;20044;-69
2023/08/03 10:05:43;;;;;;;6.30;1.67;;;;;;;;;;5040031;28;20039;-69
2023/08/03 10:08:14;;;;;;;4.32;1.52;;;;;;;;;;5041707;28;20028;-69
2023/08/03 10:10:43;;;;;;;7.50;1.65;;;;;;;;;;5041047;28;20155;-69
2023/08/03 10:13:10;;;;;;;5.93;1.52;;;;;;;;;;5023035;28;20041;-70
2023/08/03 10:15:36;;;;;;;8.07;2.22;;;;;;;;;;5041434;28;20036;-70
2023/08/03 10:18:04;;;;;;;11.80;1.73;;;;;;;;;;5041655;28;20040;-70
2023/08/03 10:20:30;;;;;;;9.90;2.25;;;;;;;;;;5023356;28;20024;-70
2023/08/03 10:23:12;;;;;;;4.35;1.20;;;;;;;;;;5040410;28;20463;-70
2023/08/03 10:25:52;;;;;;;9.27;1.45;;;;;;;;;;5024026;28;20036;-70
2023/08/03 10:28:18;;;;;;;8.32;1.48;;;;;;;;;;5022690;28;21285;-70
2023/08/03 10:31:06;;;;;;;6.70;1.20;;;;;;;;;;5039416;28;20791;-70
2023/08/03 10:33:56;;;;;;;7.15;1.85;;;;;;;;;;5039616;28;20037;-70
2023/08/03 10:36:31;;;;;;;7.45;1.95;;;;;;;;;;5035334;28;20035;-70
2023/08/03 10:39:02;;;;;;;9.73;2.03;;;;;;;;;;5040718;28;21900;-70
2023/08/03 10:41:28;;;;;;;8.50;1.52;;;;;;;;;;5041081;28;20031;-70
2023/08/03 10:44:09;;;;;;;9.90;1.70;;;;;;;;;;5040463;28;20975;-70
2023/08/03 10:46:41;;;;;;;5.32;1.70;;;;;;;;;;5040643;28;20063;-70
2023/08/03 10:49:20;;;;;;;5.25;1.67;;;;;;;;;;5041280;28;20044;-69
2023/08/03 10:51:46;;;;;;;6.43;1.50;;;;;;;;;;5041097;28;20029;-70
2023/08/03 10:54:12;;;;;;;9.90;1.83;;;;;;;;;;5020977;28;20029;-70
2023/08/03 10:56:38;;;;;;;5.78;1.45;;;;;;;;;;5041152;28;20107;-71
2023/08/03 10:59:05;;;;;;;5.40;1.38;;;;;;;;;;5041135;28;20044;-70
2023/08/03 11:01:31;;;;;;;5.18;1.30;;;;;;;;;;5038991;28;20063;-70
2023/08/03 11:04:00;;;;;;;3.72;0.88;;;;;;;;;;5038427;28;20047;-70
2023/08/03 11:06:29;;;;;;;6.80;1.42;;;;;;;;;;5037583;28;20043;-70
2023/08/03 11:08:56;;;;;;;5.43;1.30;;;;;;;;;;5022640;28;20062;-71
2023/08/03 11:11:23;;;;;;;8.13;1.08;;;;;;;;;;5045070;28;20024;-71
2023/08/03 11:13:50;;;;;;;4.80;0.98;;;;;;;;;;5044304;28;20040;-71
2023/08/03 11:16:16;;;;;;;5.07;1.15;;;;;;;;;;5044419;28;20025;-71
2023/08/03 11:18:45;;;;;;;5.88;1.42;;;;;;;;;;5043224;28;20048;-71
2023/08/03 11:21:12;;;;;;;4.57;1.10;;;;;;;;;;5039055;28;20059;-70
2023/08/03 11:23:38;;;;;;;5.32;1.10;;;;;;;;;;5036347;28;20039;-70
2023/08/03 11:26:06;;;;;;;6.93;1.08;;;;;;;;;;5036171;28;20040;-71
2023/08/03 11:28:42;;;;;;;7.28;1.40;;;;;;;;;;5037009;28;21531;-70
2023/08/03 11:31:18;;;;;;;6.38;1.20;;;;;;;;;;5036760;28;20079;-70
2023/08/03 11:34:02;;;;;;;6.20;2.05;;;;;;;;;;5035632;28;20033;-71
2023/08/03 11:36:28;;;;;;;5.10;1.10;;;;;;;;;;5038271;28;20027;-72
2023/08/03 11:38:54;;;;;;;4.13;0.95;;;;;;;;;;5035772;28;20111;-72
2023/08/03 11:41:22;;;;;;;2.28;0.77;;;;;;;;;;5035157;28;20025;-71
2023/08/03 11:43:49;;;;;;;4.60;1.00;;;;;;;;;;5042764;28;20039;-71
2023/08/03 11:46:15;;;;;;;2.13;0.73;;;;;;;;;;5043801;28;20036;-70
2023/08/03 11:48:44;;;;;;;4.88;0.70;;;;;;;;;;5044537;28;20516;-71
2023/08/03 11:51:11;;;;;;;5.10;0.88;;;;;;;;;;5043698;28;20760;-71
2023/08/03 11:53:37;;;;;;;4.43;1.00;;;;;;;;;;5043586;28;20062;-71
2023/08/03 11:56:04;;;;;;;5.13;1.50;;;;;;;;;;5044088;28;20053;-72
2023/08/03 11:58:30;;;;;;;3.97;1.00;;;;;;;;;;5027084;28;20039;-72
2023/08/03 12:01:00;;;;;;;5.32;1.05;;;;;;;;;;5027306;28;20059;-72
2023/08/03 12:03:36;;;;;;;4.13;1.10;;;;;;;;;;5044637;28;20036;-71
2023/08/03 12:06:08;;;;;;;5.07;1.15;;;;;;;;;;5043607;28;20032;-71
2023/08/03 12:08:49;;;;;;;6.40;1.17;;;;;;;;;;5044871;28;20033;-71
2023/08/03 12:11:18;;;;;;;3.08;1.25;;;;;;;;;;5027049;28;20651;-71
2023/08/03 12:13:45;;;;;;;6.40;1.50;;;;;;;;;;5043800;28;20065;-72
2023/08/03 12:16:11;;;;;;;6.22;1.65;;;;;;;;;;5041938;28;20032;-72
2023/08/03 12:18:37;;;;;;;5.32;1.33;;;;;;;;;;5044212;28;20029;-71
2023/08/03 12:21:05;;;;;;;5.25;1.52;;;;;;;;;;5043127;28;20020;-71
2023/08/03 12:23:31;;;;;;;5.70;1.27;;;;;;;;;;5043916;28;20055;-72
2023/08/03 12:25:57;;;;;;;7.93;1.80;;;;;;;;;;5045219;28;20032;-72
2023/08/03 12:28:24;;;;;;;10.65;2.08;;;;;;;;;;5044079;28;20063;-72
2023/08/03 12:30:50;;;;;;;7.18;1.63;;;;;;;;;;5044916;28;20162;-72
2023/08/03 12:33:16;;;;;;;7.85;1.77;;;;;;;;;;5043028;28;20064;-71
2023/08/03 12:35:42;;;;;;;6.00;1.65;;;;;;;;;;5042584;28;20056;-72
2023/08/03 12:38:08;;;;;;;9.75;1.73;;;;;;;;;;5043869;28;20067;-71
2023/08/03 12:40:34;;;;;;;10.90;1.60;;;;;;;;;;5041506;28;20037;-71
2023/08/03 12:43:00;;;;;;;8.02;1.30;;;;;;;;;;5043732;28;20041;-72
2023/08/03 12:45:27;;;;;;;6.43;1.30;;;;;;;;;;5044126;28;20024;-71
2023/08/03 12:47:54;;;;;;;6.80;1.30;;;;;;;;;;5043850;28;20459;-71
2023/08/03 12:50:20;;;;;;;5.53;1.33;;;;;;;;;;5042007;28;20119;-71
2023/08/03 12:52:46;;;;;;;9.50;1.88;;;;;;;;;;5044267;28;20114;-71
2023/08/03 12:55:13;;;;;;;9.60;2.10;;;;;;;;;;5045131;28;20396;-71
2023/08/03 12:57:39;;;;;;;9.82;2.25;;;;;;;;;;5044094;28;20028;-71
2023/08/03 13:00:06;;;;;;;6.80;1.30;;;;;;;;;;5043367;28;20048;-71
2023/08/03 13:02:32;;;;;;;10.70;2.55;;;;;;;;;;5043501;28;20036;-71
2023/08/03 13:04:58;;;;;;;12.63;2.03;;;;;;;;;;5042290;28;20040;-70
2023/08/03 13:07:24;;;;;;;10.30;1.98;;;;;;;;;;5043571;28;20048;-71
2023/08/03 13:09:50;;;;;;;11.73;2.15;;;;;;;;;;5044739;28;20549;-71
2023/08/03 13:12:16;;;;;;;11.98;2.70;;;;;;;;;;5042775;28;20439;-71
2023/08/03 13:14:42;;;;;;;8.60;2.40;;;;;;;;;;5041469;28;20037;-71
2023/08/03 13:17:08;;;;;;;10.50;2.80;;;;;;;;;;5043579;28;20075;-71
2023/08/03 13:19:35;;;;;;;10.90;3.03;;;;;;;;;;5042629;28;20071;-71
2023/08/03 13:22:01;;;;;;;12.82;2.55;;;;;;;;;;5025219;28;20057;-71
2023/08/03 13:24:27;;;;;;;9.45;2.03;;;;;;;;;;5043100;28;20075;-71
2023/08/03 13:27:11;;;;;;;10.32;2.53;;;;;;;;;;5041447;28;21440;-71
2023/08/03 13:29:37;;;;;;;8.00;2.13;;;;;;;;;;5040926;28;20032;-71
2023/08/03 13:32:03;;;;;;;12.07;2.63;;;;;;;;;;5042690;28;20119;-70
2023/08/03 13:34:29;;;;;;;11.52;3.63;;;;;;;;;;5040778;28;20490;-71
2023/08/03 13:36:55;;;;;;;11.82;3.25;;;;;;;;;;5042376;28;20445;-71
2023/08/03 13:39:21;;;;;;;8.90;2.42;;;;;;;;;;5043115;28;20063;-71
2023/08/03 13:41:47;;;;;;;13.45;2.60;;;;;;;;;;5042577;28;21757;-71
2023/08/03 13:44:13;;;;;;;9.13;2.92;;;;;;;;;;5043722;28;21170;-71
2023/08/03 13:46:39;;;;;;;12.20;3.00;;;;;;;;;;5042557;28;20032;-70
2023/08/03 13:49:05;;;;;;;14.05;3.10;;;;;;;;;;5043936;28;20127;-71
2023/08/03 13:51:31;;;;;;;13.43;2.95;;;;;;;;;;5043910;28;20032;-71
2023/08/03 13:53:57;;;;;;;10.18;2.78;;;;;;;;;;5043414;28;20037;-71
2023/08/03 13:56:23;;;;;;;12.55;2.65;;;;;;;;;;5022839;28;20047;-71
2023/08/03 13:58:49;;;;;;;11.25;2.78;;;;;;;;;;5044198;28;20029;-71
2023/08/03 14:01:15;;;;;;;15.23;3.90;;;;;;;;;;5042683;28;20043;-71
2023/08/03 14:03:42;;;;;;;12.35;3.03;;;;;;;;;;5042842;28;20059;-71
2023/08/03 14:06:08;;;;;;;15.43;3.40;;;;;;;;;;5042936;28;20044;-71
2023/08/03 14:08:34;;;;;;;12.45;3.72;;;;;;;;;;5042749;28;20033;-71
2023/08/03 14:11:01;;;;;;;16.77;3.00;;;;;;;;;;5042745;28;20060;-71
2023/08/03 14:13:27;;;;;;;14.57;3.25;;;;;;;;;;5043553;28;20795;-71
2023/08/03 14:15:53;;;;;;;12.95;3.35;;;;;;;;;;5041793;28;21031;-71
2023/08/03 14:18:19;;;;;;;11.20;3.20;;;;;;;;;;5045849;28;21122;-71
2023/08/03 14:20:45;;;;;;;12.05;3.05;;;;;;;;;;5045749;28;20024;-71
2023/08/03 14:23:12;;;;;;;15.15;3.72;;;;;;;;;;5027377;28;20130;-71
2023/08/03 14:25:38;;;;;;;15.95;3.72;;;;;;;;;;5046974;28;20128;-71
2023/08/03 14:28:04;;;;;;;12.75;3.55;;;;;;;;;;5046984;28;20460;-70
2023/08/03 14:30:30;;;;;;;14.82;3.25;;;;;;;;;;5047498;28;20400;-71
2023/08/03 14:32:56;;;;;;;15.75;3.88;;;;;;;;;;5047167;28;21380;-71
2023/08/03 14:35:22;;;;;;;14.52;3.97;;;;;;;;;;5046427;28;20033;-71
2023/08/03 14:37:48;;;;;;;15.18;4.03;;;;;;;;;;5046330;28;20040;-71
2023/08/03 14:40:15;;;;;;;16.23;3.50;;;;;;;;;;5046907;28;20043;-70
2023/08/03 14:42:43;;;;;;;13.32;3.78;;;;;;;;;;5046923;28;21017;-71